sensor_id;sensor_type;location;lat;lon;timestamp;P1;durP1;ratioP1;P2;durP2;ratioP2
6432;SDS011;3249;42.690;23.260;2023-04-03T00:00:08;5.70;;;4.17;;
6432;SDS011;3249;42.690;23.260;2023-04-03T00:02:40;4.00;;;3.70;;
6432;SDS011;3249;42.690;23.260;2023-04-03T00:05:10;6.60;;;3.90;;
6432;SDS011;3249;42.690;23.260;2023-04-03T00:07:39;4.87;;;4.23;;
6432;SDS011;3249;42.690;23.260;2023-04-03T00:10:08;4.40;;;4.00;;
6432;SDS011;3249;42.690;23.260;2023-04-03T00:12:39;5.50;;;5.00;;
6432;SDS011;3249;42.690;23.260;2023-04-03T00:15:08;6.07;;;5.57;;
6432;SDS011;3249;42.690;23.260;2023-04-03T00:17:37;7.30;;;5.87;;
6432;SDS011;3249;42.690;23.260;2023-04-03T00:20:09;7.33;;;6.50;;
6432;SDS011;3249;42.690;23.260;2023-04-03T00:22:39;7.50;;;5.80;;
6432;SDS011;3249;42.690;23.260;2023-04-03T00:25:08;7.47;;;5.17;;
6432;SDS011;3249;42.690;23.260;2023-04-03T00:27:38;4.37;;;4.07;;
6432;SDS011;3249;42.690;23.260;2023-04-03T00:30:16;5.63;;;5.17;;
6432;SDS011;3249;42.690;23.260;2023-04-03T00:32:47;5.97;;;5.47;;
6432;SDS011;3249;42.690;23.260;2023-04-03T00:35:20;6.87;;;6.17;;
6432;SDS011;3249;42.690;23.260;2023-04-03T00:37:50;8.63;;;6.40;;
6432;SDS011;3249;42.690;23.260;2023-04-03T00:40:20;5.50;;;5.00;;
6432;SDS011;3249;42.690;23.260;2023-04-03T00:42:55;20.47;;;15.97;;
6432;SDS011;3249;42.690;23.260;2023-04-03T00:45:30;65.17;;;40.47;;
6432;SDS011;3249;42.690;23.260;2023-04-03T00:48:03;51.80;;;36.63;;
6432;SDS011;3249;42.690;23.260;2023-04-03T00:50:41;37.83;;;24.03;;
6432;SDS011;3249;42.690;23.260;2023-04-03T00:53:14;14.67;;;9.33;;
6432;SDS011;3249;42.690;23.260;2023-04-03T00:55:46;15.63;;;10.23;;
6432;SDS011;3249;42.690;23.260;2023-04-03T00:58:17;53.33;;;39.10;;
6432;SDS011;3249;42.690;23.260;2023-04-03T01:00:50;37.37;;;31.77;;
6432;SDS011;3249;42.690;23.260;2023-04-03T01:03:24;12.07;;;9.70;;
6432;SDS011;3249;42.690;23.260;2023-04-03T01:05:56;24.20;;;17.23;;
6432;SDS011;3249;42.690;23.260;2023-04-03T01:08:26;6.80;;;6.20;;
6432;SDS011;3249;42.690;23.260;2023-04-03T01:10:55;17.57;;;10.97;;
6432;SDS011;3249;42.690;23.260;2023-04-03T01:13:27;20.73;;;13.40;;
6432;SDS011;3249;42.690;23.260;2023-04-03T01:16:00;16.13;;;12.57;;
6432;SDS011;3249;42.690;23.260;2023-04-03T01:18:30;27.80;;;19.20;;
6432;SDS011;3249;42.690;23.260;2023-04-03T01:24:08;38.50;;;31.27;;
6432;SDS011;3249;42.690;23.260;2023-04-03T01:26:54;41.00;;;27.57;;
6432;SDS011;3249;42.690;23.260;2023-04-03T01:29:23;12.60;;;10.63;;
6432;SDS011;3249;42.690;23.260;2023-04-03T01:31:56;26.20;;;17.20;;
6432;SDS011;3249;42.690;23.260;2023-04-03T01:34:26;5.07;;;4.67;;
6432;SDS011;3249;42.690;23.260;2023-04-03T01:36:57;8.30;;;7.50;;
6432;SDS011;3249;42.690;23.260;2023-04-03T01:39:26;14.97;;;10.80;;
6432;SDS011;3249;42.690;23.260;2023-04-03T01:41:55;12.90;;;10.47;;
6432;SDS011;3249;42.690;23.260;2023-04-03T01:44:29;3.90;;;3.60;;
6432;SDS011;3249;42.690;23.260;2023-04-03T01:47:01;4.80;;;4.07;;
6432;SDS011;3249;42.690;23.260;2023-04-03T01:49:33;8.03;;;4.87;;
6432;SDS011;3249;42.690;23.260;2023-04-03T01:52:02;8.23;;;5.43;;
6432;SDS011;3249;42.690;23.260;2023-04-03T01:54:31;7.20;;;4.53;;
6432;SDS011;3249;42.690;23.260;2023-04-03T01:57:00;8.03;;;6.17;;
6432;SDS011;3249;42.690;23.260;2023-04-03T01:59:30;8.30;;;5.87;;
6432;SDS011;3249;42.690;23.260;2023-04-03T02:02:01;8.90;;;5.70;;
6432;SDS011;3249;42.690;23.260;2023-04-03T02:04:31;6.33;;;5.43;;
6432;SDS011;3249;42.690;23.260;2023-04-03T02:07:00;5.50;;;4.73;;
6432;SDS011;3249;42.690;23.260;2023-04-03T02:09:29;8.20;;;4.90;;
6432;SDS011;3249;42.690;23.260;2023-04-03T02:11:58;7.50;;;4.43;;
6432;SDS011;3249;42.690;23.260;2023-04-03T02:14:28;5.20;;;4.73;;
6432;SDS011;3249;42.690;23.260;2023-04-03T02:16:57;5.57;;;5.07;;
6432;SDS011;3249;42.690;23.260;2023-04-03T02:19:33;5.27;;;4.77;;
6432;SDS011;3249;42.690;23.260;2023-04-03T02:22:02;6.27;;;5.30;;
6432;SDS011;3249;42.690;23.260;2023-04-03T02:24:32;6.33;;;4.90;;
6432;SDS011;3249;42.690;23.260;2023-04-03T02:27:01;6.77;;;5.77;;
6432;SDS011;3249;42.690;23.260;2023-04-03T02:29:30;6.57;;;5.50;;
6432;SDS011;3249;42.690;23.260;2023-04-03T02:32:01;12.53;;;8.97;;
6432;SDS011;3249;42.690;23.260;2023-04-03T02:34:34;24.90;;;11.73;;
6432;SDS011;3249;42.690;23.260;2023-04-03T02:37:04;50.23;;;27.47;;
6432;SDS011;3249;42.690;23.260;2023-04-03T02:39:33;14.10;;;10.63;;
6432;SDS011;3249;42.690;23.260;2023-04-03T02:42:03;44.70;;;30.67;;
6432;SDS011;3249;42.690;23.260;2023-04-03T02:44:33;53.57;;;37.17;;
6432;SDS011;3249;42.690;23.260;2023-04-03T02:47:02;39.47;;;30.63;;
6432;SDS011;3249;42.690;23.260;2023-04-03T02:49:35;35.23;;;26.20;;
6432;SDS011;3249;42.690;23.260;2023-04-03T02:52:04;36.67;;;26.50;;
6432;SDS011;3249;42.690;23.260;2023-04-03T02:54:33;75.03;;;47.30;;
6432;SDS011;3249;42.690;23.260;2023-04-03T02:57:05;73.00;;;46.20;;
6432;SDS011;3249;42.690;23.260;2023-04-03T02:59:34;61.20;;;42.83;;
6432;SDS011;3249;42.690;23.260;2023-04-03T03:02:06;86.77;;;53.80;;
6432;SDS011;3249;42.690;23.260;2023-04-03T03:04:38;93.30;;;67.90;;
6432;SDS011;3249;42.690;23.260;2023-04-03T03:07:08;292.10;;;167.50;;
6432;SDS011;3249;42.690;23.260;2023-04-03T03:09:37;109.30;;;65.40;;
6432;SDS011;3249;42.690;23.260;2023-04-03T03:12:06;27.83;;;20.27;;
6432;SDS011;3249;42.690;23.260;2023-04-03T03:14:35;81.80;;;52.17;;
6432;SDS011;3249;42.690;23.260;2023-04-03T03:17:04;30.00;;;20.93;;
6432;SDS011;3249;42.690;23.260;2023-04-03T03:19:38;71.23;;;50.30;;
6432;SDS011;3249;42.690;23.260;2023-04-03T03:22:07;98.50;;;62.17;;
6432;SDS011;3249;42.690;23.260;2023-04-03T03:24:36;104.63;;;71.97;;
6432;SDS011;3249;42.690;23.260;2023-04-03T03:27:05;64.87;;;43.60;;
6432;SDS011;3249;42.690;23.260;2023-04-03T03:29:34;63.97;;;46.07;;
6432;SDS011;3249;42.690;23.260;2023-04-03T03:32:05;46.57;;;30.27;;
6432;SDS011;3249;42.690;23.260;2023-04-03T03:34:36;55.30;;;32.20;;
6432;SDS011;3249;42.690;23.260;2023-04-03T03:37:08;71.47;;;48.37;;
6432;SDS011;3249;42.690;23.260;2023-04-03T03:39:37;58.40;;;28.17;;
6432;SDS011;3249;42.690;23.260;2023-04-03T03:42:06;42.13;;;29.03;;
6432;SDS011;3249;42.690;23.260;2023-04-03T03:44:37;53.23;;;27.43;;
6432;SDS011;3249;42.690;23.260;2023-04-03T03:47:06;58.87;;;23.70;;
6432;SDS011;3249;42.690;23.260;2023-04-03T03:49:39;42.93;;;21.50;;
6432;SDS011;3249;42.690;23.260;2023-04-03T03:52:08;43.43;;;22.63;;
6432;SDS011;3249;42.690;23.260;2023-04-03T03:54:38;42.57;;;27.43;;
6432;SDS011;3249;42.690;23.260;2023-04-03T03:57:07;36.60;;;19.73;;
6432;SDS011;3249;42.690;23.260;2023-04-03T03:59:36;45.77;;;24.07;;
6432;SDS011;3249;42.690;23.260;2023-04-03T04:02:06;43.33;;;23.30;;
6432;SDS011;3249;42.690;23.260;2023-04-03T04:04:38;33.60;;;20.17;;
6432;SDS011;3249;42.690;23.260;2023-04-03T04:07:08;46.60;;;22.43;;
6432;SDS011;3249;42.690;23.260;2023-04-03T04:09:37;30.93;;;20.30;;
6432;SDS011;3249;42.690;23.260;2023-04-03T04:12:08;47.63;;;37.60;;
6432;SDS011;3249;42.690;23.260;2023-04-03T04:14:37;47.40;;;22.90;;
6432;SDS011;3249;42.690;23.260;2023-04-03T04:17:08;40.80;;;19.70;;
6432;SDS011;3249;42.690;23.260;2023-04-03T04:19:40;32.70;;;18.83;;
6432;SDS011;3249;42.690;23.260;2023-04-03T04:22:09;42.20;;;20.30;;
6432;SDS011;3249;42.690;23.260;2023-04-03T04:24:38;45.23;;;19.00;;
6432;SDS011;3249;42.690;23.260;2023-04-03T04:27:08;33.87;;;14.97;;
6432;SDS011;3249;42.690;23.260;2023-04-03T04:29:38;36.57;;;15.53;;
6432;SDS011;3249;42.690;23.260;2023-04-03T04:32:07;24.33;;;13.23;;
6432;SDS011;3249;42.690;23.260;2023-04-03T04:34:37;22.83;;;13.27;;
6432;SDS011;3249;42.690;23.260;2023-04-03T04:37:09;31.70;;;16.33;;
6432;SDS011;3249;42.690;23.260;2023-04-03T04:39:38;26.47;;;16.23;;
6432;SDS011;3249;42.690;23.260;2023-04-03T04:42:07;28.47;;;15.47;;
6432;SDS011;3249;42.690;23.260;2023-04-03T04:44:40;26.37;;;14.13;;
6432;SDS011;3249;42.690;23.260;2023-04-03T04:47:09;53.53;;;32.20;;
6432;SDS011;3249;42.690;23.260;2023-04-03T04:49:42;36.20;;;23.70;;
6432;SDS011;3249;42.690;23.260;2023-04-03T04:52:13;36.30;;;19.87;;
6432;SDS011;3249;42.690;23.260;2023-04-03T04:54:42;38.67;;;20.37;;
6432;SDS011;3249;42.690;23.260;2023-04-03T04:57:13;32.70;;;18.73;;
6432;SDS011;3249;42.690;23.260;2023-04-03T04:59:43;25.10;;;15.87;;
6432;SDS011;3249;42.690;23.260;2023-04-03T05:02:12;23.70;;;12.67;;
6432;SDS011;3249;42.690;23.260;2023-04-03T05:04:45;23.93;;;11.63;;
6432;SDS011;3249;42.690;23.260;2023-04-03T05:07:20;13.83;;;10.87;;
6432;SDS011;3249;42.690;23.260;2023-04-03T05:09:49;15.27;;;10.67;;
6432;SDS011;3249;42.690;23.260;2023-04-03T05:12:18;24.80;;;15.20;;
6432;SDS011;3249;42.690;23.260;2023-04-03T05:14:53;28.83;;;15.63;;
6432;SDS011;3249;42.690;23.260;2023-04-03T05:17:24;26.70;;;15.77;;
6432;SDS011;3249;42.690;23.260;2023-04-03T05:19:57;21.13;;;14.53;;
6432;SDS011;3249;42.690;23.260;2023-04-03T05:22:28;19.93;;;12.37;;
6432;SDS011;3249;42.690;23.260;2023-04-03T05:25:03;18.97;;;11.57;;
6432;SDS011;3249;42.690;23.260;2023-04-03T05:27:35;18.50;;;13.17;;
6432;SDS011;3249;42.690;23.260;2023-04-03T05:30:05;15.97;;;12.13;;
6432;SDS011;3249;42.690;23.260;2023-04-03T05:32:38;22.03;;;11.43;;
6432;SDS011;3249;42.690;23.260;2023-04-03T05:35:33;21.10;;;12.50;;
6432;SDS011;3249;42.690;23.260;2023-04-03T05:38:06;23.33;;;13.30;;
6432;SDS011;3249;42.690;23.260;2023-04-03T05:40:36;30.37;;;14.77;;
6432;SDS011;3249;42.690;23.260;2023-04-03T05:43:06;22.63;;;11.47;;
6432;SDS011;3249;42.690;23.260;2023-04-03T05:45:38;14.77;;;8.40;;
6432;SDS011;3249;42.690;23.260;2023-04-03T05:48:07;12.03;;;8.90;;
6432;SDS011;3249;42.690;23.260;2023-04-03T05:50:41;12.57;;;7.50;;
6432;SDS011;3249;42.690;23.260;2023-04-03T05:53:17;13.57;;;7.23;;
6432;SDS011;3249;42.690;23.260;2023-04-03T05:55:50;7.00;;;6.37;;
6432;SDS011;3249;42.690;23.260;2023-04-03T05:58:19;8.07;;;7.30;;
6432;SDS011;3249;42.690;23.260;2023-04-03T06:00:50;9.00;;;7.10;;
6432;SDS011;3249;42.690;23.260;2023-04-03T06:03:19;11.10;;;7.50;;
6432;SDS011;3249;42.690;23.260;2023-04-03T06:05:51;13.20;;;7.50;;
6432;SDS011;3249;42.690;23.260;2023-04-03T06:08:20;7.77;;;6.77;;
6432;SDS011;3249;42.690;23.260;2023-04-03T06:10:49;8.73;;;6.63;;
6432;SDS011;3249;42.690;23.260;2023-04-03T06:13:18;15.23;;;7.53;;
6432;SDS011;3249;42.690;23.260;2023-04-03T06:15:47;13.73;;;7.97;;
6432;SDS011;3249;42.690;23.260;2023-04-03T06:18:16;19.87;;;8.53;;
6432;SDS011;3249;42.690;23.260;2023-04-03T06:20:46;23.03;;;8.67;;
6432;SDS011;3249;42.690;23.260;2023-04-03T06:23:18;11.30;;;7.30;;
6432;SDS011;3249;42.690;23.260;2023-04-03T06:25:47;11.30;;;8.10;;
6432;SDS011;3249;42.690;23.260;2023-04-03T06:28:16;7.73;;;6.77;;
6432;SDS011;3249;42.690;23.260;2023-04-03T06:30:45;8.13;;;6.97;;
6432;SDS011;3249;42.690;23.260;2023-04-03T06:33:14;11.27;;;6.50;;
6432;SDS011;3249;42.690;23.260;2023-04-03T06:35:44;12.20;;;6.13;;
6432;SDS011;3249;42.690;23.260;2023-04-03T06:38:13;6.80;;;6.00;;
6432;SDS011;3249;42.690;23.260;2023-04-03T06:40:46;10.17;;;6.93;;
6432;SDS011;3249;42.690;23.260;2023-04-03T06:43:17;8.43;;;6.13;;
6432;SDS011;3249;42.690;23.260;2023-04-03T06:45:46;15.53;;;6.17;;
6432;SDS011;3249;42.690;23.260;2023-04-03T06:48:15;7.57;;;5.77;;
6432;SDS011;3249;42.690;23.260;2023-04-03T06:50:44;6.57;;;5.47;;
6432;SDS011;3249;42.690;23.260;2023-04-03T06:53:13;6.60;;;5.53;;
6432;SDS011;3249;42.690;23.260;2023-04-03T06:55:47;12.30;;;6.30;;
6432;SDS011;3249;42.690;23.260;2023-04-03T06:58:15;9.67;;;5.37;;
6432;SDS011;3249;42.690;23.260;2023-04-03T07:00:46;5.73;;;5.23;;
6432;SDS011;3249;42.690;23.260;2023-04-03T07:03:15;4.77;;;4.43;;
6432;SDS011;3249;42.690;23.260;2023-04-03T07:05:44;6.43;;;4.40;;
6432;SDS011;3249;42.690;23.260;2023-04-03T07:08:14;6.20;;;4.57;;
6432;SDS011;3249;42.690;23.260;2023-04-03T07:10:43;5.90;;;4.83;;
6432;SDS011;3249;42.690;23.260;2023-04-03T07:13:16;5.20;;;4.70;;
6432;SDS011;3249;42.690;23.260;2023-04-03T07:15:46;5.63;;;4.60;;
6432;SDS011;3249;42.690;23.260;2023-04-03T07:18:16;7.43;;;5.07;;
6432;SDS011;3249;42.690;23.260;2023-04-03T07:20:47;6.37;;;4.30;;
6432;SDS011;3249;42.690;23.260;2023-04-03T07:23:16;6.77;;;4.77;;
6432;SDS011;3249;42.690;23.260;2023-04-03T07:25:48;8.37;;;5.20;;
6432;SDS011;3249;42.690;23.260;2023-04-03T07:28:19;8.73;;;7.90;;
6432;SDS011;3249;42.690;23.260;2023-04-03T07:30:50;9.73;;;5.40;;
6432;SDS011;3249;42.690;23.260;2023-04-03T07:33:22;5.47;;;4.97;;
6432;SDS011;3249;42.690;23.260;2023-04-03T07:35:52;7.57;;;5.40;;
6432;SDS011;3249;42.690;23.260;2023-04-03T07:38:21;6.93;;;6.17;;
6432;SDS011;3249;42.690;23.260;2023-04-03T07:40:53;7.30;;;5.37;;
6432;SDS011;3249;42.690;23.260;2023-04-03T07:43:22;9.77;;;6.10;;
6432;SDS011;3249;42.690;23.260;2023-04-03T07:45:51;4.20;;;3.90;;
6432;SDS011;3249;42.690;23.260;2023-04-03T07:48:20;4.40;;;4.00;;
6432;SDS011;3249;42.690;23.260;2023-04-03T07:50:50;7.13;;;4.37;;
6432;SDS011;3249;42.690;23.260;2023-04-03T07:53:19;5.87;;;4.10;;
6432;SDS011;3249;42.690;23.260;2023-04-03T07:55:48;3.70;;;3.50;;
6432;SDS011;3249;42.690;23.260;2023-04-03T07:58:23;5.10;;;4.20;;
6432;SDS011;3249;42.690;23.260;2023-04-03T08:00:53;4.40;;;4.10;;
6432;SDS011;3249;42.690;23.260;2023-04-03T08:03:22;5.63;;;4.17;;
6432;SDS011;3249;42.690;23.260;2023-04-03T08:05:51;6.47;;;4.30;;
6432;SDS011;3249;42.690;23.260;2023-04-03T08:08:21;7.63;;;4.97;;
6432;SDS011;3249;42.690;23.260;2023-04-03T08:10:52;12.13;;;8.57;;
6432;SDS011;3249;42.690;23.260;2023-04-03T08:13:24;10.07;;;9.00;;
6432;SDS011;3249;42.690;23.260;2023-04-03T08:15:53;13.40;;;11.70;;
6432;SDS011;3249;42.690;23.260;2023-04-03T08:18:23;11.17;;;9.87;;
6432;SDS011;3249;42.690;23.260;2023-04-03T08:20:53;10.97;;;8.47;;
6432;SDS011;3249;42.690;23.260;2023-04-03T08:23:22;13.00;;;7.80;;
6432;SDS011;3249;42.690;23.260;2023-04-03T08:25:51;8.23;;;7.30;;
6432;SDS011;3249;42.690;23.260;2023-04-03T08:28:24;7.77;;;7.00;;
6432;SDS011;3249;42.690;23.260;2023-04-03T08:30:53;9.23;;;8.10;;
6432;SDS011;3249;42.690;23.260;2023-04-03T08:33:23;18.53;;;10.10;;
6432;SDS011;3249;42.690;23.260;2023-04-03T08:35:52;10.10;;;8.97;;
6432;SDS011;3249;42.690;23.260;2023-04-03T08:38:22;13.57;;;10.30;;
6432;SDS011;3249;42.690;23.260;2023-04-03T08:40:59;17.27;;;11.10;;
6432;SDS011;3249;42.690;23.260;2023-04-03T08:43:34;12.70;;;11.40;;
6432;SDS011;3249;42.690;23.260;2023-04-03T08:46:13;17.50;;;13.03;;
6432;SDS011;3249;42.690;23.260;2023-04-03T08:48:45;26.37;;;12.63;;
6432;SDS011;3249;42.690;23.260;2023-04-03T08:51:17;23.83;;;15.67;;
6432;SDS011;3249;42.690;23.260;2023-04-03T08:53:51;19.33;;;13.57;;
6432;SDS011;3249;42.690;23.260;2023-04-03T08:56:25;23.70;;;19.60;;
6432;SDS011;3249;42.690;23.260;2023-04-03T08:58:59;22.87;;;16.83;;
6432;SDS011;3249;42.690;23.260;2023-04-03T09:01:34;25.13;;;14.97;;
6432;SDS011;3249;42.690;23.260;2023-04-03T09:04:16;25.03;;;15.40;;
6432;SDS011;3249;42.690;23.260;2023-04-03T09:06:45;22.80;;;15.83;;
6432;SDS011;3249;42.690;23.260;2023-04-03T09:09:22;24.00;;;14.40;;
6432;SDS011;3249;42.690;23.260;2023-04-03T09:12:00;14.03;;;11.87;;
6432;SDS011;3249;42.690;23.260;2023-04-03T09:14:41;18.60;;;12.97;;
6432;SDS011;3249;42.690;23.260;2023-04-03T09:17:20;15.87;;;14.17;;
6432;SDS011;3249;42.690;23.260;2023-04-03T09:19:57;18.83;;;13.97;;
6432;SDS011;3249;42.690;23.260;2023-04-03T09:22:31;16.13;;;13.53;;
6432;SDS011;3249;42.690;23.260;2023-04-03T09:25:05;15.47;;;13.07;;
6432;SDS011;3249;42.690;23.260;2023-04-03T09:27:40;15.20;;;13.60;;
6432;SDS011;3249;42.690;23.260;2023-04-03T09:30:15;15.83;;;13.70;;
6432;SDS011;3249;42.690;23.260;2023-04-03T09:32:47;21.83;;;15.13;;
6432;SDS011;3249;42.690;23.260;2023-04-03T09:35:19;22.27;;;15.00;;
6432;SDS011;3249;42.690;23.260;2023-04-03T09:37:51;23.00;;;16.67;;
6432;SDS011;3249;42.690;23.260;2023-04-03T09:40:30;22.67;;;14.13;;
6432;SDS011;3249;42.690;23.260;2023-04-03T09:45:56;17.73;;;13.87;;
6432;SDS011;3249;42.690;23.260;2023-04-03T09:48:50;20.17;;;15.10;;
6432;SDS011;3249;42.690;23.260;2023-04-03T09:51:20;17.47;;;13.50;;
6432;SDS011;3249;42.690;23.260;2023-04-03T09:53:55;19.23;;;13.83;;
6432;SDS011;3249;42.690;23.260;2023-04-03T09:56:25;14.87;;;10.43;;
6432;SDS011;3249;42.690;23.260;2023-04-03T09:59:06;19.20;;;11.37;;
6432;SDS011;3249;42.690;23.260;2023-04-03T10:01:55;12.63;;;11.40;;
6432;SDS011;3249;42.690;23.260;2023-04-03T10:04:28;17.37;;;13.67;;
6432;SDS011;3249;42.690;23.260;2023-04-03T10:10:02;18.13;;;11.23;;
6432;SDS011;3249;42.690;23.260;2023-04-03T10:12:43;19.27;;;14.20;;
6432;SDS011;3249;42.690;23.260;2023-04-03T10:15:13;23.23;;;11.27;;
6432;SDS011;3249;42.690;23.260;2023-04-03T10:17:50;12.47;;;9.73;;
6432;SDS011;3249;42.690;23.260;2023-04-03T10:20:27;9.23;;;7.67;;
6432;SDS011;3249;42.690;23.260;2023-04-03T10:23:05;11.17;;;8.90;;
6432;SDS011;3249;42.690;23.260;2023-04-03T10:25:47;17.47;;;8.47;;
6432;SDS011;3249;42.690;23.260;2023-04-03T10:28:25;9.23;;;8.07;;
6432;SDS011;3249;42.690;23.260;2023-04-03T10:31:03;11.70;;;8.80;;
6432;SDS011;3249;42.690;23.260;2023-04-03T10:33:51;8.10;;;7.30;;
6432;SDS011;3249;42.690;23.260;2023-04-03T10:36:32;8.50;;;7.80;;
6432;SDS011;3249;42.690;23.260;2023-04-03T10:39:08;11.93;;;9.03;;
6432;SDS011;3249;42.690;23.260;2023-04-03T10:41:47;11.20;;;8.27;;
6432;SDS011;3249;42.690;23.260;2023-04-03T10:44:27;7.63;;;6.20;;
6432;SDS011;3249;42.690;23.260;2023-04-03T10:47:06;7.27;;;6.67;;
6432;SDS011;3249;42.690;23.260;2023-04-03T10:49:47;9.00;;;5.40;;
6432;SDS011;3249;42.690;23.260;2023-04-03T10:52:23;50.67;;;29.47;;
6432;SDS011;3249;42.690;23.260;2023-04-03T10:55:01;5.53;;;4.90;;
6432;SDS011;3249;42.690;23.260;2023-04-03T10:57:36;6.77;;;5.07;;
6432;SDS011;3249;42.690;23.260;2023-04-03T11:00:13;8.53;;;5.83;;
6432;SDS011;3249;42.690;23.260;2023-04-03T11:02:45;11.87;;;6.47;;
6432;SDS011;3249;42.690;23.260;2023-04-03T11:05:26;6.70;;;6.03;;
6432;SDS011;3249;42.690;23.260;2023-04-03T11:08:01;17.23;;;7.33;;
6432;SDS011;3249;42.690;23.260;2023-04-03T11:10:36;8.43;;;6.10;;
6432;SDS011;3249;42.690;23.260;2023-04-03T11:13:11;6.53;;;5.93;;
6432;SDS011;3249;42.690;23.260;2023-04-03T11:15:43;6.90;;;6.27;;
6432;SDS011;3249;42.690;23.260;2023-04-03T11:18:13;5.87;;;5.10;;
6432;SDS011;3249;42.690;23.260;2023-04-03T11:20:50;5.07;;;4.63;;
6432;SDS011;3249;42.690;23.260;2023-04-03T11:23:30;9.07;;;6.23;;
6432;SDS011;3249;42.690;23.260;2023-04-03T11:26:07;6.00;;;5.40;;
6432;SDS011;3249;42.690;23.260;2023-04-03T11:28:38;6.67;;;6.17;;
6432;SDS011;3249;42.690;23.260;2023-04-03T11:31:11;9.67;;;5.37;;
6432;SDS011;3249;42.690;23.260;2023-04-03T11:33:51;9.23;;;5.30;;
6432;SDS011;3249;42.690;23.260;2023-04-03T11:36:34;5.97;;;5.07;;
6432;SDS011;3249;42.690;23.260;2023-04-03T11:39:14;5.23;;;4.80;;
6432;SDS011;3249;42.690;23.260;2023-04-03T11:41:49;7.10;;;4.90;;
6432;SDS011;3249;42.690;23.260;2023-04-03T11:44:27;8.80;;;6.47;;
6432;SDS011;3249;42.690;23.260;2023-04-03T11:47:00;6.47;;;5.97;;
6432;SDS011;3249;42.690;23.260;2023-04-03T11:58:29;4.87;;;4.57;;
6432;SDS011;3249;42.690;23.260;2023-04-03T12:01:06;5.07;;;4.57;;
6432;SDS011;3249;42.690;23.260;2023-04-03T12:06:42;4.37;;;4.07;;
6432;SDS011;3249;42.690;23.260;2023-04-03T12:09:32;4.80;;;4.50;;
6432;SDS011;3249;42.690;23.260;2023-04-03T12:14:56;5.13;;;4.73;;
6432;SDS011;3249;42.690;23.260;2023-04-03T12:17:52;4.30;;;4.00;;
6432;SDS011;3249;42.690;23.260;2023-04-03T12:23:28;7.27;;;4.43;;
6432;SDS011;3249;42.690;23.260;2023-04-03T12:25:59;5.77;;;4.83;;
6432;SDS011;3249;42.690;23.260;2023-04-03T12:28:39;4.20;;;3.90;;
6432;SDS011;3249;42.690;23.260;2023-04-03T12:31:09;4.40;;;4.10;;
6432;SDS011;3249;42.690;23.260;2023-04-03T12:33:46;4.77;;;4.30;;
6432;SDS011;3249;42.690;23.260;2023-04-03T12:36:30;5.33;;;4.00;;
6432;SDS011;3249;42.690;23.260;2023-04-03T12:42:20;5.73;;;4.50;;
6432;SDS011;3249;42.690;23.260;2023-04-03T12:45:08;6.03;;;5.53;;
6432;SDS011;3249;42.690;23.260;2023-04-03T12:47:44;5.40;;;4.90;;
6432;SDS011;3249;42.690;23.260;2023-04-03T12:50:18;6.17;;;5.47;;
6432;SDS011;3249;42.690;23.260;2023-04-03T12:52:54;5.77;;;5.27;;
6432;SDS011;3249;42.690;23.260;2023-04-03T12:55:28;5.67;;;5.20;;
6432;SDS011;3249;42.690;23.260;2023-04-03T12:58:13;7.03;;;6.53;;
6432;SDS011;3249;42.690;23.260;2023-04-03T13:00:46;5.90;;;5.50;;
6432;SDS011;3249;42.690;23.260;2023-04-03T13:03:26;6.43;;;5.83;;
6432;SDS011;3249;42.690;23.260;2023-04-03T13:05:59;6.70;;;6.17;;
6432;SDS011;3249;42.690;23.260;2023-04-03T13:08:33;6.87;;;6.23;;
6432;SDS011;3249;42.690;23.260;2023-04-03T13:11:04;6.53;;;6.13;;
6432;SDS011;3249;42.690;23.260;2023-04-03T13:13:39;7.77;;;6.40;;
6432;SDS011;3249;42.690;23.260;2023-04-03T13:16:11;6.33;;;5.83;;
6432;SDS011;3249;42.690;23.260;2023-04-03T13:18:40;7.07;;;6.57;;
6432;SDS011;3249;42.690;23.260;2023-04-03T13:21:13;7.37;;;6.40;;
6432;SDS011;3249;42.690;23.260;2023-04-03T13:23:57;6.87;;;6.30;;
6432;SDS011;3249;42.690;23.260;2023-04-03T13:26:29;7.57;;;6.97;;
6432;SDS011;3249;42.690;23.260;2023-04-03T13:29:02;8.90;;;7.80;;
6432;SDS011;3249;42.690;23.260;2023-04-03T13:31:37;8.60;;;8.00;;
6432;SDS011;3249;42.690;23.260;2023-04-03T13:34:11;9.07;;;8.27;;
6432;SDS011;3249;42.690;23.260;2023-04-03T13:36:43;9.63;;;8.63;;
6432;SDS011;3249;42.690;23.260;2023-04-03T13:39:21;10.03;;;9.10;;
6432;SDS011;3249;42.690;23.260;2023-04-03T13:41:55;10.40;;;9.43;;
6432;SDS011;3249;42.690;23.260;2023-04-03T13:44:31;12.60;;;10.27;;
6432;SDS011;3249;42.690;23.260;2023-04-03T13:47:17;10.80;;;9.70;;
6432;SDS011;3249;42.690;23.260;2023-04-03T13:49:58;9.50;;;8.63;;
6432;SDS011;3249;42.690;23.260;2023-04-03T13:52:30;8.80;;;8.07;;
6432;SDS011;3249;42.690;23.260;2023-04-03T13:55:03;9.30;;;8.50;;
6432;SDS011;3249;42.690;23.260;2023-04-03T13:57:50;9.50;;;8.50;;
6432;SDS011;3249;42.690;23.260;2023-04-03T14:00:26;9.70;;;8.97;;
6432;SDS011;3249;42.690;23.260;2023-04-03T14:03:02;9.33;;;8.53;;
6432;SDS011;3249;42.690;23.260;2023-04-03T14:05:40;9.50;;;8.70;;
6432;SDS011;3249;42.690;23.260;2023-04-03T14:08:11;9.67;;;8.70;;
6432;SDS011;3249;42.690;23.260;2023-04-03T14:10:40;12.20;;;8.60;;
6432;SDS011;3249;42.690;23.260;2023-04-03T14:13:11;8.80;;;7.97;;
6432;SDS011;3249;42.690;23.260;2023-04-03T14:15:42;9.37;;;8.47;;
6432;SDS011;3249;42.690;23.260;2023-04-03T14:18:16;9.17;;;8.47;;
6432;SDS011;3249;42.690;23.260;2023-04-03T14:20:48;9.80;;;8.87;;
6432;SDS011;3249;42.690;23.260;2023-04-03T14:23:17;9.73;;;8.83;;
6432;SDS011;3249;42.690;23.260;2023-04-03T14:25:47;8.83;;;8.03;;
6432;SDS011;3249;42.690;23.260;2023-04-03T14:28:17;11.17;;;8.03;;
6432;SDS011;3249;42.690;23.260;2023-04-03T14:30:49;9.73;;;8.83;;
6432;SDS011;3249;42.690;23.260;2023-04-03T14:33:23;9.40;;;8.60;;
6432;SDS011;3249;42.690;23.260;2023-04-03T14:35:53;9.93;;;9.03;;
6432;SDS011;3249;42.690;23.260;2023-04-03T14:38:24;8.77;;;8.07;;
6432;SDS011;3249;42.690;23.260;2023-04-03T14:40:54;8.27;;;7.57;;
6432;SDS011;3249;42.690;23.260;2023-04-03T14:43:27;9.47;;;8.67;;
6432;SDS011;3249;42.690;23.260;2023-04-03T14:46:01;8.70;;;8.10;;
6432;SDS011;3249;42.690;23.260;2023-04-03T14:48:37;8.97;;;8.20;;
6432;SDS011;3249;42.690;23.260;2023-04-03T14:51:08;8.10;;;7.50;;
6432;SDS011;3249;42.690;23.260;2023-04-03T14:53:42;9.47;;;8.67;;
6432;SDS011;3249;42.690;23.260;2023-04-03T14:56:15;8.10;;;7.50;;
6432;SDS011;3249;42.690;23.260;2023-04-03T14:58:51;9.20;;;8.50;;
6432;SDS011;3249;42.690;23.260;2023-04-03T15:01:24;7.70;;;7.07;;
6432;SDS011;3249;42.690;23.260;2023-04-03T15:03:56;8.33;;;7.73;;
6432;SDS011;3249;42.690;23.260;2023-04-03T15:06:25;8.13;;;7.40;;
6432;SDS011;3249;42.690;23.260;2023-04-03T15:08:55;8.87;;;8.03;;
6432;SDS011;3249;42.690;23.260;2023-04-03T15:11:24;7.87;;;7.27;;
6432;SDS011;3249;42.690;23.260;2023-04-03T15:13:53;8.67;;;8.00;;
6432;SDS011;3249;42.690;23.260;2023-04-03T15:16:23;9.43;;;8.43;;
6432;SDS011;3249;42.690;23.260;2023-04-03T15:18:52;11.20;;;9.57;;
6432;SDS011;3249;42.690;23.260;2023-04-03T15:21:24;19.50;;;10.93;;
6432;SDS011;3249;42.690;23.260;2023-04-03T15:23:53;11.13;;;9.17;;
6432;SDS011;3249;42.690;23.260;2023-04-03T15:26:22;10.40;;;8.43;;
6432;SDS011;3249;42.690;23.260;2023-04-03T15:28:51;8.03;;;7.33;;
6432;SDS011;3249;42.690;23.260;2023-04-03T15:31:23;10.13;;;7.97;;
6432;SDS011;3249;42.690;23.260;2023-04-03T15:33:52;10.10;;;9.10;;
6432;SDS011;3249;42.690;23.260;2023-04-03T15:36:24;7.80;;;7.10;;
6432;SDS011;3249;42.690;23.260;2023-04-03T15:38:54;8.43;;;7.63;;
6432;SDS011;3249;42.690;23.260;2023-04-03T15:41:23;8.80;;;7.90;;
6432;SDS011;3249;42.690;23.260;2023-04-03T15:43:53;7.57;;;6.87;;
6432;SDS011;3249;42.690;23.260;2023-04-03T15:46:22;8.57;;;7.87;;
6432;SDS011;3249;42.690;23.260;2023-04-03T15:48:53;7.83;;;7.13;;
6432;SDS011;3249;42.690;23.260;2023-04-03T15:51:27;8.70;;;7.90;;